Time;durP1;ratioP1;P1;durP2;ratioP2;P2;SDS_P1;SDS_P2;PMS_P1;PMS_P2;Temp;Humidity;BMP_temperature;BMP_pressure;BME280_temperature;BME280_humidity;BME280_pressure;Samples;Min_cycle;Max_cycle;Signal;HPM_P1;HPM_P2
2021/12/15 00:01:24;;;;;;;70.93;28.55;;;9.40;99.90;;;;;;5081896;28;20028;-49
2021/12/15 00:03:50;;;;;;;66.35;29.38;;;9.50;99.90;;;;;;5080087;28;20048;-50
2021/12/15 00:06:18;;;;;;;66.93;27.77;;;9.40;99.90;;;;;;5062999;28;20166;-48
2021/12/15 00:08:48;;;;;;;67.63;27.48;;;9.50;99.90;;;;;;5061538;28;20052;-53
2021/12/15 00:11:15;;;;;;;71.07;27.55;;;9.50;99.90;;;;;;5078806;28;20043;-50
2021/12/15 00:13:42;;;;;;;59.67;25.83;;;9.30;99.90;;;;;;5070673;28;20037;-48
2021/12/15 00:16:10;;;;;;;62.55;27.38;;;10.20;99.90;;;;;;5075241;28;20051;-49
2021/12/15 00:18:41;;;;;;;67.60;27.23;;;10.10;99.90;;;;;;5071871;28;20123;-48
2021/12/15 00:21:07;;;;;;;65.65;26.58;;;11.60;99.90;;;;;;5080340;28;20139;-52
2021/12/15 00:23:33;;;;;;;55.05;25.83;;;10.60;99.90;;;;;;5078929;28;20040;-50
2021/12/15 00:26:01;;;;;;;65.43;27.73;;;9.60;99.90;;;;;;5076269;28;20132;-50
2021/12/15 00:28:27;;;;;;;62.70;26.90;;;9.80;99.90;;;;;;5077229;28;20510;-48
2021/12/15 00:30:52;;;;;;;60.97;25.60;;;9.30;99.90;;;;;;5072068;28;20131;-51
2021/12/15 00:33:18;;;;;;;63.17;26.52;;;10.70;99.90;;;;;;5079903;28;20066;-49
2021/12/15 00:35:44;;;;;;;58.97;24.63;;;9.30;99.90;;;;;;5068641;28;20112;-50
2021/12/15 00:38:10;;;;;;;65.10;25.92;;;10.50;99.90;;;;;;5069540;28;20416;-48
2021/12/15 00:40:36;;;;;;;63.42;25.80;;;9.50;99.90;;;;;;5063020;28;20040;-49
2021/12/15 00:43:03;;;;;;;55.40;24.92;;;9.40;99.90;;;;;;5064549;28;20039;-50
2021/12/15 00:45:29;;;;;;;65.13;26.73;;;10.10;99.90;;;;;;5064760;28;20075;-49
2021/12/15 00:47:57;;;;;;;56.03;25.27;;;9.40;99.90;;;;;;5065643;28;20072;-49
2021/12/15 00:50:28;;;;;;;63.70;26.40;;;9.60;99.90;;;;;;5073424;28;20050;-49
2021/12/15 00:52:55;;;;;;;59.42;26.58;;;10.70;99.90;;;;;;5064951;28;20072;-50
2021/12/15 00:55:23;;;;;;;58.15;24.38;;;10.20;99.90;;;;;;5078693;28;20040;-51
2021/12/15 00:57:49;;;;;;;65.15;24.95;;;9.80;99.90;;;;;;5071277;28;20067;-48
2021/12/15 01:00:25;;;;;;;56.55;25.65;;;10.60;99.90;;;;;;5084711;28;20604;-49
2021/12/15 01:02:52;;;;;;;48.53;24.60;;;9.70;99.90;;;;;;5078987;28;20044;-53
2021/12/15 01:05:21;;;;;;;62.33;26.75;;;10.60;99.90;;;;;;5063431;28;20043;-49
2021/12/15 01:07:47;;;;;;;63.63;25.35;;;9.50;99.90;;;;;;5071707;28;20039;-49
2021/12/15 01:10:19;;;;;;;59.05;26.25;;;9.40;99.90;;;;;;5079108;28;20127;-48
2021/12/15 01:14:31;;;;;;;62.92;25.20;;;9.60;99.90;;;;;;5074745;28;20032;-49
2021/12/15 01:21:13;;;;;;;60.97;27.10;;;10.00;99.90;;;;;;5065146;28;20051;-49
2021/12/15 01:23:40;;;;;;;71.70;30.20;;;9.50;99.90;;;;;;5070079;28;20575;-51
2021/12/15 01:26:09;;;;;;;59.05;27.00;;;9.80;99.90;;;;;;5065398;28;20048;-48
2021/12/15 01:28:37;;;;;;;63.95;29.15;;;9.70;99.90;;;;;;5072823;28;20119;-50
2021/12/15 01:31:05;;;;;;;58.22;28.05;;;10.20;99.90;;;;;;5069275;28;20664;-48
2021/12/15 01:33:33;;;;;;;61.78;29.70;;;9.60;99.90;;;;;;5062605;28;20044;-49
2021/12/15 01:35:59;;;;;;;60.58;27.33;;;10.80;99.90;;;;;;5074428;28;20041;-49
2021/12/15 01:38:32;;;;;;;58.28;29.83;;;9.60;99.90;;;;;;5082030;28;20043;-50
2021/12/15 01:40:59;;;;;;;65.45;29.23;;;9.70;99.90;;;;;;5071073;28;20401;-49
2021/12/15 01:49:15;;;;;;;73.63;32.13;;;9.60;99.90;;;;;;5040445;28;20060;-49
2021/12/15 01:51:42;;;;;;;68.13;32.20;;;9.30;99.90;;;;;;5038983;28;20052;-48
2021/12/15 01:54:11;;;;;;;65.13;28.95;;;9.60;99.90;;;;;;5041007;28;20505;-49
2021/12/15 01:56:37;;;;;;;69.03;29.73;;;11.20;99.90;;;;;;5039546;28;20053;-48
2021/12/15 01:59:04;;;;;;;67.50;31.77;;;9.70;99.90;;;;;;5040013;28;20509;-49
2021/12/15 02:01:30;;;;;;;69.85;31.48;;;9.60;99.90;;;;;;5041441;28;20529;-48
2021/12/15 02:03:58;;;;;;;69.72;31.55;;;10.40;99.90;;;;;;5040186;28;20048;-49
2021/12/15 02:06:25;;;;;;;70.15;32.38;;;9.50;99.90;;;;;;5041175;28;20091;-48
2021/12/15 02:08:53;;;;;;;75.38;31.85;;;9.60;99.90;;;;;;5040715;28;20037;-49
2021/12/15 02:11:19;;;;;;;64.70;31.35;;;10.00;99.90;;;;;;5041292;28;20045;-53
2021/12/15 02:13:45;;;;;;;72.82;31.85;;;9.50;99.90;;;;;;5039681;28;20048;-50
2021/12/15 02:16:11;;;;;;;75.18;30.98;;;9.60;99.90;;;;;;5040296;28;20049;-48
2021/12/15 02:18:45;;;;;;;65.70;30.48;;;9.60;99.90;;;;;;5040053;28;20037;-48
2021/12/15 02:21:17;;;;;;;78.47;31.85;;;9.70;99.90;;;;;;5039683;28;20056;-49
2021/12/15 02:23:49;;;;;;;69.20;29.75;;;9.60;99.90;;;;;;5053831;28;20044;-49
2021/12/15 02:26:22;;;;;;;70.45;29.27;;;9.70;99.90;;;;;;5073301;28;20048;-49
2021/12/15 02:28:55;;;;;;;63.92;30.17;;;11.60;99.90;;;;;;5071777;28;20044;-50
2021/12/15 02:39:03;;;;;;;64.82;31.52;;;9.50;99.90;;;;;;5073152;28;20106;-49
2021/12/15 02:41:31;;;;;;;68.70;31.10;;;10.60;99.90;;;;;;5060476;28;20119;-50
2021/12/15 02:44:05;;;;;;;72.18;30.80;;;11.10;99.90;;;;;;5064257;28;20792;-48
2021/12/15 02:46:34;;;;;;;69.28;31.88;;;9.60;99.90;;;;;;5073046;28;20078;-49
2021/12/15 02:49:02;;;;;;;67.00;30.50;;;9.60;99.90;;;;;;5071088;28;20110;-50
2021/12/15 02:51:28;;;;;;;67.10;31.75;;;10.70;99.90;;;;;;5075077;28;20036;-54
2021/12/15 02:53:58;;;;;;;64.65;32.72;;;9.50;99.90;;;;;;5062977;28;20532;-53
2021/12/15 02:56:25;;;;;;;61.60;30.75;;;10.60;99.90;;;;;;5074068;28;20531;-51
2021/12/15 02:59:00;;;;;;;67.95;31.52;;;9.90;99.90;;;;;;5061991;28;20174;-54
2021/12/15 03:04:42;;;;;;;69.65;33.28;;;9.50;99.90;;;;;;5003504;28;20504;-50
2021/12/15 03:07:25;;;;;;;71.30;34.78;;;9.50;99.90;;;;;;5010588;28;20061;-49
2021/12/15 03:15:29;;;;;;;71.63;32.92;;;9.60;99.90;;;;;;5013220;28;20045;-53
2021/12/15 03:18:17;;;;;;;69.78;33.10;;;9.60;99.90;;;;;;5006958;28;20907;-49
2021/12/15 03:20:46;;;;;;;67.25;32.67;;;9.50;99.90;;;;;;5018057;28;20596;-49
2021/12/15 03:23:13;;;;;;;69.47;32.65;;;9.50;99.90;;;;;;5000346;28;20524;-49
2021/12/15 03:25:40;;;;;;;70.88;33.33;;;9.60;99.90;;;;;;4997995;28;20582;-51
2021/12/15 03:36:12;;;;;;;65.13;31.98;;;9.50;99.90;;;;;;5002454;28;20046;-53
2021/12/15 03:38:39;;;;;;;67.45;33.22;;;10.80;99.90;;;;;;5000793;28;20048;-49
2021/12/15 03:41:08;;;;;;;65.22;31.85;;;10.60;99.90;;;;;;5065095;28;20088;-50
2021/12/15 03:43:35;;;;;;;58.08;29.67;;;9.50;99.90;;;;;;5070083;28;20599;-51
2021/12/15 03:46:06;;;;;;;72.45;33.30;;;10.00;99.90;;;;;;5068404;28;20133;-50
2021/12/15 03:48:36;;;;;;;66.45;31.08;;;9.50;99.90;;;;;;5069334;28;20726;-51
2021/12/15 03:51:02;;;;;;;71.43;32.83;;;9.40;99.90;;;;;;5077125;28;20056;-49
2021/12/15 03:53:29;;;;;;;67.97;32.92;;;9.80;99.90;;;;;;5061864;28;20048;-49
2021/12/15 03:55:55;;;;;;;63.28;30.88;;;9.90;99.90;;;;;;5075746;28;20075;-52
2021/12/15 03:58:23;;;;;;;68.00;33.00;;;11.40;99.90;;;;;;5069535;28;20127;-50
2021/12/15 04:01:01;;;;;;;69.72;32.17;;;10.70;99.90;;;;;;5071736;28;20055;-50
2021/12/15 04:03:35;;;;;;;62.90;32.17;;;9.40;99.90;;;;;;5065544;28;20045;-50
2021/12/15 04:06:03;;;;;;;63.70;31.35;;;11.40;99.90;;;;;;5077632;28;20029;-48
2021/12/15 04:08:30;;;;;;;60.20;29.13;;;9.30;99.90;;;;;;5076856;28;20050;-49
2021/12/15 04:10:58;;;;;;;58.05;28.77;;;10.50;99.90;;;;;;5079809;28;20033;-49
2021/12/15 04:13:25;;;;;;;58.53;29.40;;;9.50;99.90;;;;;;5065327;28;20025;-49
2021/12/15 04:15:57;;;;;;;59.45;29.80;;;10.00;99.90;;;;;;5076767;28;20036;-49
2021/12/15 04:18:24;;;;;;;69.60;31.07;;;9.50;99.90;;;;;;5071608;28;20036;-49
2021/12/15 04:20:52;;;;;;;58.85;28.67;;;9.50;99.90;;;;;;5072538;28;20680;-50
2021/12/15 04:23:21;;;;;;;61.78;30.25;;;9.50;99.90;;;;;;5077964;28;20513;-49
2021/12/15 04:25:51;;;;;;;64.72;30.67;;;10.80;99.90;;;;;;5078742;28;20044;-49
2021/12/15 04:28:26;;;;;;;64.80;30.60;;;9.90;99.90;;;;;;5084632;28;20076;-49
2021/12/15 04:30:55;;;;;;;64.07;30.42;;;9.60;99.90;;;;;;5075386;28;20059;-49
2021/12/15 04:33:33;;;;;;;65.28;30.75;;;10.50;99.90;;;;;;5065452;28;20025;-48
2021/12/15 04:36:01;;;;;;;70.38;30.65;;;9.50;99.90;;;;;;5070782;28;20048;-50
2021/12/15 04:38:29;;;;;;;64.25;30.20;;;9.50;99.90;;;;;;5070128;28;20051;-50
2021/12/15 04:40:56;;;;;;;64.53;30.27;;;9.60;99.90;;;;;;5068976;28;20042;-49
2021/12/15 04:43:22;;;;;;;63.20;29.48;;;9.40;99.90;;;;;;5074422;28;20123;-50
2021/12/15 04:45:48;;;;;;;66.55;30.60;;;9.50;99.90;;;;;;5074265;28;20046;-51
2021/12/15 04:48:16;;;;;;;63.50;29.85;;;10.70;99.90;;;;;;5075145;28;20036;-50
2021/12/15 04:50:42;;;;;;;57.85;29.48;;;9.60;99.90;;;;;;5087647;28;20076;-49
2021/12/15 04:53:09;;;;;;;62.55;29.48;;;10.40;99.90;;;;;;5079054;28;20028;-51
2021/12/15 04:55:37;;;;;;;67.60;30.80;;;9.40;99.90;;;;;;5070854;28;20105;-50
2021/12/15 04:58:05;;;;;;;60.83;27.75;;;10.10;99.90;;;;;;5067225;28;20033;-50
2021/12/15 05:00:35;;;;;;;64.80;31.02;;;10.70;99.90;;;;;;5080007;28;20064;-49
2021/12/15 05:03:01;;;;;;;69.35;32.75;;;9.30;99.90;;;;;;5075419;28;20063;-50
2021/12/15 05:05:28;;;;;;;70.85;31.33;;;9.50;99.90;;;;;;5072915;28;20040;-51
2021/12/15 05:07:54;;;;;;;69.55;31.55;;;9.40;99.90;;;;;;5073802;28;20123;-49
2021/12/15 05:10:22;;;;;;;62.92;31.27;;;10.90;99.90;;;;;;5063454;28;20052;-52
2021/12/15 05:12:48;;;;;;;75.57;30.73;;;9.40;99.90;;;;;;5084926;28;20048;-50
2021/12/15 05:15:15;;;;;;;73.40;32.97;;;9.60;99.90;;;;;;5070757;28;20051;-50
2021/12/15 05:17:40;;;;;;;68.60;32.33;;;10.50;99.90;;;;;;5083603;28;20067;-49
2021/12/15 05:20:08;;;;;;;71.60;32.60;;;10.10;99.90;;;;;;5083789;28;20032;-52
2021/12/15 05:22:35;;;;;;;72.57;30.77;;;9.60;99.90;;;;;;5072174;28;20048;-50
2021/12/15 05:25:05;;;;;;;68.07;33.53;;;9.50;99.90;;;;;;5074199;28;20051;-49
2021/12/15 05:27:31;;;;;;;71.15;32.05;;;9.40;99.90;;;;;;5072843;28;20120;-53
2021/12/15 05:29:57;;;;;;;68.05;31.65;;;9.50;99.90;;;;;;5071549;28;20192;-49
2021/12/15 05:32:23;;;;;;;68.45;32.42;;;10.50;99.90;;;;;;5071632;28;20029;-50
2021/12/15 05:34:52;;;;;;;72.80;31.60;;;9.60;99.90;;;;;;5061346;28;20528;-50
2021/12/15 05:37:23;;;;;;;68.65;31.55;;;9.40;99.90;;;;;;5061569;28;20142;-50
2021/12/15 05:39:51;;;;;;;68.60;31.63;;;9.50;99.90;;;;;;5066465;28;20044;-49
2021/12/15 05:42:19;;;;;;;67.20;30.15;;;9.50;99.90;;;;;;5074942;28;20036;-51
2021/12/15 05:44:47;;;;;;;68.75;31.33;;;9.50;99.90;;;;;;5069255;28;20032;-51
2021/12/15 05:47:14;;;;;;;69.20;31.17;;;9.40;99.90;;;;;;5063721;28;20725;-51
2021/12/15 05:49:40;;;;;;;70.43;31.92;;;9.40;99.90;;;;;;5076373;28;20098;-51
2021/12/15 05:52:07;;;;;;;75.82;32.88;;;9.60;99.90;;;;;;5063598;28;20044;-49
2021/12/15 05:54:33;;;;;;;70.63;32.03;;;9.70;99.90;;;;;;5065735;28;20044;-52
2021/12/15 05:56:59;;;;;;;73.75;33.42;;;9.50;99.90;;;;;;5079679;28;20554;-54
2021/12/15 05:59:27;;;;;;;69.13;33.33;;;9.30;99.90;;;;;;5072941;28;20044;-52
2021/12/15 06:01:53;;;;;;;73.68;32.92;;;10.70;99.90;;;;;;5080608;28;20095;-51
2021/12/15 06:04:19;;;;;;;60.97;30.67;;;9.70;99.90;;;;;;5062907;28;20417;-48
2021/12/15 06:06:45;;;;;;;73.93;33.35;;;10.10;99.90;;;;;;5082047;28;20115;-51
2021/12/15 06:09:12;;;;;;;71.88;32.33;;;10.60;99.90;;;;;;5082000;28;20177;-49
2021/12/15 06:11:38;;;;;;;71.05;34.25;;;9.40;99.90;;;;;;5082509;28;20039;-48
2021/12/15 06:14:06;;;;;;;63.42;30.95;;;9.50;99.90;;;;;;5067645;28;20036;-54
2021/12/15 06:16:35;;;;;;;63.58;31.10;;;9.60;99.90;;;;;;5070661;28;20040;-53
2021/12/15 06:19:02;;;;;;;64.85;31.30;;;9.50;99.90;;;;;;5070723;28;20044;-49
2021/12/15 06:21:28;;;;;;;67.82;31.35;;;9.70;99.90;;;;;;5078221;28;20037;-53
2021/12/15 06:23:53;;;;;;;61.45;30.30;;;9.60;99.90;;;;;;5074132;28;20075;-50
2021/12/15 06:26:19;;;;;;;68.55;29.58;;;10.60;99.90;;;;;;5061783;28;20047;-50
2021/12/15 06:28:46;;;;;;;64.68;30.73;;;9.50;99.90;;;;;;5059913;28;20595;-48
2021/12/15 06:31:14;;;;;;;67.07;29.30;;;9.60;99.90;;;;;;5061591;28;20044;-48
2021/12/15 06:33:41;;;;;;;62.92;29.38;;;9.40;99.90;;;;;;5074797;28;20571;-53
2021/12/15 06:36:08;;;;;;;56.38;27.98;;;9.50;99.90;;;;;;5071732;28;20408;-49
2021/12/15 06:38:41;;;;;;;57.22;26.73;;;9.50;99.90;;;;;;5064278;28;20255;-48
2021/12/15 06:41:08;;;;;;;56.58;26.50;;;9.50;99.90;;;;;;5070184;28;20029;-49
2021/12/15 06:43:36;;;;;;;60.58;28.63;;;9.60;99.90;;;;;;5077983;28;20576;-51
2021/12/15 06:59:31;;;;;;;60.08;28.17;;;9.50;99.90;;;;;;5075014;28;20040;-50
2021/12/15 07:01:57;;;;;;;54.10;26.70;;;9.70;99.90;;;;;;5081128;28;20516;-49
2021/12/15 07:04:24;;;;;;;54.28;27.67;;;9.80;99.90;;;;;;5071809;28;20441;-50
2021/12/15 07:06:52;;;;;;;59.45;28.00;;;10.20;99.90;;;;;;5081838;28;20726;-48
2021/12/15 07:09:19;;;;;;;53.92;26.00;;;9.60;99.90;;;;;;5081390;28;20036;-48
2021/12/15 07:11:45;;;;;;;44.47;23.65;;;10.40;99.90;;;;;;5081017;28;20118;-49
2021/12/15 07:14:12;;;;;;;56.17;25.85;;;9.60;99.90;;;;;;5063141;28;20441;-48
2021/12/15 07:16:42;;;;;;;50.65;24.23;;;9.50;99.90;;;;;;5062001;28;20028;-49
2021/12/15 07:19:16;;;;;;;54.60;24.33;;;9.70;99.90;;;;;;5076613;28;20373;-48
2021/12/15 07:21:55;;;;;;;48.60;23.60;;;9.60;99.90;;;;;;5074862;28;20504;-50
2021/12/15 07:24:21;;;;;;;54.83;23.70;;;11.00;99.90;;;;;;5062174;28;20409;-51
2021/12/15 07:26:50;;;;;;;53.67;24.30;;;10.50;99.90;;;;;;5082144;28;20518;-49
2021/12/15 07:29:16;;;;;;;51.95;23.27;;;9.90;99.90;;;;;;5065205;28;20040;-51
2021/12/15 07:31:43;;;;;;;47.63;23.27;;;9.60;99.90;;;;;;5061573;28;20044;-50
2021/12/15 07:34:09;;;;;;;48.28;23.70;;;10.20;99.90;;;;;;5062637;28;20456;-51
2021/12/15 07:36:34;;;;;;;47.78;23.02;;;9.50;99.90;;;;;;5076826;28;20044;-52
2021/12/15 07:39:00;;;;;;;52.75;25.25;;;9.70;99.90;;;;;;5063028;28;20041;-52
2021/12/15 07:41:32;;;;;;;42.90;22.30;;;10.30;99.90;;;;;;5064831;28;20060;-49
2021/12/15 07:43:59;;;;;;;51.38;21.70;;;10.80;99.90;;;;;;5081812;28;20170;-52
2021/12/15 07:46:26;;;;;;;44.78;21.15;;;10.40;99.90;;;;;;5081850;28;20068;-51
2021/12/15 07:48:52;;;;;;;54.60;23.33;;;11.70;99.90;;;;;;5065425;28;20032;-49
2021/12/15 07:51:18;;;;;;;39.42;21.10;;;10.30;99.90;;;;;;5084172;28;20117;-49
2021/12/15 07:53:44;;;;;;;40.65;20.30;;;10.60;99.90;;;;;;5079558;28;20701;-53
2021/12/15 07:56:11;;;;;;;43.22;19.08;;;9.50;99.90;;;;;;5078121;28;20044;-49
2021/12/15 07:58:37;;;;;;;43.00;18.45;;;10.30;99.90;;;;;;5069036;28;20039;-42
2021/12/15 08:01:05;;;;;;;41.03;19.58;;;9.50;99.90;;;;;;5077348;28;20052;-42
2021/12/15 08:03:35;;;;;;;36.25;17.60;;;9.40;99.90;;;;;;5080898;28;21596;-42
2021/12/15 08:06:03;;;;;;;38.22;17.38;;;9.70;99.90;;;;;;5065265;28;20106;-41
2021/12/15 08:08:29;;;;;;;29.95;17.02;;;9.30;99.90;;;;;;5082703;28;20118;-41
2021/12/15 08:10:56;;;;;;;35.30;16.88;;;9.50;99.90;;;;;;5072064;28;20036;-41
2021/12/15 08:13:25;;;;;;;39.22;16.35;;;9.40;99.90;;;;;;5079854;28;20404;-41
2021/12/15 08:15:51;;;;;;;35.97;17.95;;;10.70;99.90;;;;;;5065756;28;20070;-41
2021/12/15 08:18:17;;;;;;;37.65;19.17;;;11.30;99.90;;;;;;5074053;28;20032;-44
2021/12/15 08:20:44;;;;;;;39.83;20.25;;;9.40;99.90;;;;;;5084299;28;20064;-43
2021/12/15 08:23:10;;;;;;;40.05;18.98;;;9.40;99.90;;;;;;5070293;28;20131;-42
2021/12/15 08:25:38;;;;;;;39.03;20.17;;;9.40;99.90;;;;;;5066375;28;20128;-42
2021/12/15 08:28:06;;;;;;;41.38;19.92;;;11.50;99.90;;;;;;5068615;28;20047;-44
2021/12/15 08:30:32;;;;;;;46.25;21.35;;;9.40;99.90;;;;;;5076800;28;20040;-41
2021/12/15 08:33:02;;;;;;;38.08;20.48;;;10.30;99.90;;;;;;5076307;28;20044;-48
2021/12/15 08:35:32;;;;;;;43.85;20.33;;;10.00;99.90;;;;;;5084251;28;20047;-42
2021/12/15 08:37:58;;;;;;;36.00;19.10;;;9.40;99.90;;;;;;5082241;28;20032;-47
2021/12/15 08:40:25;;;;;;;37.97;18.45;;;9.50;99.90;;;;;;5078975;28;20076;-47
2021/12/15 08:42:52;;;;;;;37.83;16.98;;;9.60;99.90;;;;;;5080358;28;20159;-43
2021/12/15 08:45:19;;;;;;;32.13;16.88;;;9.40;99.90;;;;;;5084074;28;20032;-43
2021/12/15 08:47:46;;;;;;;35.65;18.33;;;9.60;99.90;;;;;;5082759;28;20040;-41
2021/12/15 08:50:16;;;;;;;34.95;17.70;;;11.60;99.90;;;;;;5067763;28;20044;-47
2021/12/15 08:52:42;;;;;;;36.95;18.00;;;9.60;99.90;;;;;;5080783;28;20044;-41
2021/12/15 08:55:09;;;;;;;37.92;17.60;;;9.60;99.90;;;;;;5073401;28;20405;-43
2021/12/15 08:57:36;;;;;;;39.38;17.23;;;9.70;99.90;;;;;;5077964;28;20043;-43
2021/12/15 09:00:07;;;;;;;39.20;19.15;;;10.30;99.90;;;;;;5081835;28;20043;-42
2021/12/15 09:02:34;;;;;;;36.50;19.48;;;9.50;99.90;;;;;;5073899;28;20040;-41
2021/12/15 09:05:00;;;;;;;39.72;19.70;;;11.80;99.90;;;;;;5082043;28;20135;-41
2021/12/15 09:07:26;;;;;;;36.67;19.05;;;9.60;99.90;;;;;;5091853;28;20453;-41
2021/12/15 09:09:52;;;;;;;45.00;21.35;;;9.40;99.90;;;;;;5074645;28;20036;-42
2021/12/15 09:12:19;;;;;;;42.60;19.40;;;9.50;99.90;;;;;;5072559;28;20062;-46
2021/12/15 09:14:46;;;;;;;41.60;19.70;;;9.90;99.90;;;;;;5079706;28;20083;-42
2021/12/15 09:17:12;;;;;;;42.13;18.67;;;10.00;99.90;;;;;;5083959;28;20750;-46
2021/12/15 09:19:37;;;;;;;40.58;19.92;;;10.00;99.90;;;;;;5074070;28;20085;-42
2021/12/15 09:22:04;;;;;;;41.85;19.10;;;10.40;99.90;;;;;;5076062;28;20123;-46
2021/12/15 09:24:30;;;;;;;36.92;19.08;;;10.30;99.90;;;;;;5065767;28;20039;-42
2021/12/15 09:26:56;;;;;;;37.17;17.98;;;9.90;99.90;;;;;;5074127;28;20051;-41
2021/12/15 09:29:22;;;;;;;35.20;18.75;;;9.90;99.90;;;;;;5072582;28;20040;-42
2021/12/15 09:31:49;;;;;;;33.03;17.17;;;9.90;99.90;;;;;;5070882;28;20131;-41
2021/12/15 09:34:18;;;;;;;32.47;16.67;;;9.90;99.90;;;;;;5070495;28;20040;-42
2021/12/15 09:36:46;;;;;;;32.65;16.52;;;11.60;99.90;;;;;;5075764;28;20043;-42
2021/12/15 09:39:15;;;;;;;24.73;13.80;;;10.20;99.90;;;;;;5069684;28;20667;-41
2021/12/15 09:41:41;;;;;;;26.88;15.02;;;10.10;99.90;;;;;;5074000;28;20141;-42
2021/12/15 09:44:11;;;;;;;25.60;13.10;;;11.20;99.90;;;;;;5072748;28;20115;-42
2021/12/15 09:47:09;;;;;;;27.25;13.77;;;10.30;99.90;;;;;;5081056;28;20024;-43
2021/12/15 10:17:39;;;;;;;25.38;12.75;;;10.00;99.90;;;;;;5071482;28;20058;-43
2021/12/15 10:19:51;;;;;;;21.85;10.82;;;12.20;99.90;;;;;;5069957;28;20408;-42
2021/12/15 10:22:34;;;;;;;24.65;11.88;;;11.20;99.90;;;;;;5082337;28;20035;-41
2021/12/15 10:25:17;;;;;;;22.35;12.30;;;10.00;99.90;;;;;;5075652;28;20048;-44
2021/12/15 10:27:55;;;;;;;22.80;11.48;;;10.00;99.90;;;;;;5080860;28;20492;-42
2021/12/15 10:30:42;;;;;;;23.90;11.95;;;9.90;99.90;;;;;;5068150;28;21391;-43
2021/12/15 10:33:16;;;;;;;25.60;12.07;;;10.90;99.90;;;;;;4992452;28;20528;-42
2021/12/15 10:35:47;;;;;;;22.15;10.68;;;10.20;99.90;;;;;;4996243;28;21208;-41
2021/12/15 10:38:40;;;;;;;19.27;11.05;;;11.90;99.90;;;;;;4988068;28;20112;-42
2021/12/15 10:41:18;;;;;;;23.02;11.70;;;10.00;99.90;;;;;;4961106;28;20042;-43
2021/12/15 10:43:47;;;;;;;18.70;10.43;;;10.00;99.90;;;;;;4945870;28;20531;-44
2021/12/15 10:46:22;;;;;;;20.90;10.77;;;10.20;99.90;;;;;;4960783;28;20046;-43
2021/12/15 10:48:53;;;;;;;37.58;11.70;;;10.80;99.90;;;;;;4962508;28;20559;-42
2021/12/15 10:51:30;;;;;;;22.77;9.88;;;10.00;99.90;;;;;;4958863;28;20035;-42
2021/12/15 10:54:00;;;;;;;22.48;10.57;;;10.10;99.90;;;;;;4961309;28;20131;-43
2021/12/15 10:56:30;;;;;;;22.38;11.68;;;10.30;99.90;;;;;;4959669;28;20042;-42
2021/12/15 10:59:00;;;;;;;21.23;11.35;;;10.10;99.90;;;;;;4960665;28;20157;-41
2021/12/15 11:01:32;;;;;;;22.70;10.82;;;10.10;99.90;;;;;;4960790;28;21398;-42
2021/12/15 11:04:00;;;;;;;21.75;9.55;;;10.90;99.90;;;;;;4962286;28;20053;-43
2021/12/15 11:06:32;;;;;;;22.75;9.48;;;10.40;99.90;;;;;;4961016;28;20121;-47
2021/12/15 11:09:17;;;;;;;18.80;9.90;;;11.40;99.90;;;;;;4961202;28;20054;-41
2021/12/15 11:12:02;;;;;;;16.60;8.07;;;10.30;99.90;;;;;;5041844;28;20128;-43
2021/12/15 11:14:33;;;;;;;15.85;8.27;;;10.40;99.90;;;;;;5040198;28;20045;-42
2021/12/15 11:17:12;;;;;;;13.23;7.18;;;10.40;99.90;;;;;;5041125;28;20501;-42
2021/12/15 11:19:46;;;;;;;15.45;7.20;;;10.20;99.90;;;;;;5071771;28;20631;-43
2021/12/15 11:22:30;;;;;;;10.63;6.18;;;10.20;99.90;;;;;;5081234;28;20606;-45
2021/12/15 11:24:57;;;;;;;15.52;7.03;;;10.30;99.90;;;;;;5071429;28;20127;-43
2021/12/15 11:27:22;;;;;;;14.82;5.82;;;10.40;99.90;;;;;;5076088;28;20046;-44
2021/12/15 11:29:48;;;;;;;19.17;7.15;;;11.70;99.90;;;;;;5073117;28;20039;-43
2021/12/15 11:32:40;;;;;;;13.35;5.82;;;10.20;99.90;;;;;;5070436;28;20028;-43
2021/12/15 11:35:11;;;;;;;13.52;5.82;;;10.30;99.90;;;;;;5071239;28;20094;-45
2021/12/15 11:37:58;;;;;;;13.40;5.47;;;10.40;99.90;;;;;;5076376;28;20141;-46
2021/12/15 11:40:32;;;;;;;14.35;5.47;;;10.30;99.90;;;;;;5071580;28;20048;-48
2021/12/15 11:42:59;;;;;;;15.73;5.57;;;10.40;99.90;;;;;;5078902;28;20644;-44
2021/12/15 11:45:26;;;;;;;13.45;5.30;;;10.60;99.90;;;;;;5075592;28;20043;-45
2021/12/15 11:48:11;;;;;;;13.63;5.47;;;10.70;99.90;;;;;;5064329;28;20390;-45
2021/12/15 11:50:40;;;;;;;12.35;4.68;;;10.70;99.90;;;;;;5072427;28;20055;-43
2021/12/15 11:53:05;;;;;;;10.93;5.22;;;11.70;99.90;;;;;;5074541;28;20025;-43
2021/12/15 11:55:33;;;;;;;15.63;5.18;;;10.40;99.90;;;;;;5075031;28;20041;-46
2021/12/15 11:58:00;;;;;;;12.43;4.80;;;10.30;99.90;;;;;;5071164;28;20279;-44
2021/12/15 12:00:28;;;;;;;10.95;3.92;;;10.50;99.90;;;;;;5074556;28;20662;-44
2021/12/15 12:02:57;;;;;;;13.57;4.32;;;10.30;99.90;;;;;;5072913;28;20036;-44
2021/12/15 12:05:36;;;;;;;15.52;5.05;;;10.20;99.90;;;;;;5062310;28;20033;-48
2021/12/15 12:08:10;;;;;;;16.35;4.88;;;10.50;99.90;;;;;;5062763;28;20048;-49
2021/12/15 12:10:48;;;;;;;13.52;4.72;;;10.50;99.90;;;;;;5070319;28;20119;-48
2021/12/15 12:13:26;;;;;;;17.60;5.05;;;10.40;99.90;;;;;;5071811;28;20123;-45
2021/12/15 12:15:56;;;;;;;17.48;4.78;;;10.40;99.90;;;;;;5064806;28;20700;-52
2021/12/15 12:18:25;;;;;;;14.45;5.05;;;10.40;99.90;;;;;;5067040;28;20036;-43
2021/12/15 12:20:55;;;;;;;13.07;5.07;;;10.30;99.90;;;;;;5082782;28;20056;-44
2021/12/15 12:23:27;;;;;;;13.20;5.57;;;10.30;99.90;;;;;;5078191;28;20064;-49
2021/12/15 12:26:01;;;;;;;16.20;5.65;;;10.20;99.90;;;;;;5071057;28;20054;-44
2021/12/15 12:28:33;;;;;;;18.60;5.38;;;10.40;99.90;;;;;;5075584;28;20120;-44
2021/12/15 12:31:20;;;;;;;10.57;4.10;;;10.50;99.90;;;;;;5066321;28;20082;-49
2021/12/15 12:33:47;;;;;;;10.55;4.28;;;10.40;99.90;;;;;;5075597;28;20035;-43
2021/12/15 12:36:19;;;;;;;11.95;4.28;;;10.30;99.90;;;;;;5075620;28;20072;-44
2021/12/15 12:38:50;;;;;;;;;;;10.40;99.90;;;;;;5074282;28;20043;-45
2021/12/15 12:41:20;;;;;;;12.60;3.90;;;10.30;99.90;;;;;;5085998;28;19931;-46
2021/12/15 12:43:51;;;;;;;15.15;4.32;;;11.90;99.90;;;;;;5068845;28;20377;-43
2021/12/15 12:46:24;;;;;;;12.23;3.85;;;10.30;99.90;;;;;;5075634;28;20033;-43
2021/12/15 13:00:42;;;;;;;10.02;2.88;;;11.00;99.90;;;;;;5080396;28;20078;-43
2021/12/15 13:03:19;;;;;;;9.55;2.92;;;10.10;99.90;;;;;;5065851;28;20412;-43
2021/12/15 13:05:53;;;;;;;7.10;2.45;;;9.80;99.90;;;;;;5074057;28;20140;-45
2021/12/15 13:08:39;;;;;;;6.00;2.35;;;9.90;99.90;;;;;;5072900;28;20036;-44
2021/12/15 13:11:20;;;;;;;10.52;2.33;;;9.80;99.90;;;;;;5067311;28;20400;-44
2021/12/15 13:14:31;;;;;;;8.48;2.17;;;10.30;99.90;;;;;;5075175;28;20040;-47
2021/12/15 13:17:00;;;;;;;10.85;2.50;;;9.70;99.90;;;;;;5080768;28;20040;-45
2021/12/15 13:19:32;;;;;;;9.05;2.20;;;9.90;99.90;;;;;;5076531;28;20044;-44
2021/12/15 13:30:46;;;;;;;9.85;2.30;;;9.80;99.90;;;;;;5076678;28;20167;-45
2021/12/15 13:33:36;;;;;;;17.45;2.67;;;9.50;99.90;;;;;;5075111;28;20522;-44
2021/12/15 13:36:10;;;;;;;5.30;1.70;;;9.60;99.90;;;;;;5071860;28;20568;-48
2021/12/15 13:38:46;;;;;;;6.95;1.90;;;9.50;99.90;;;;;;5078615;28;20131;-45
2021/12/15 13:41:28;;;;;;;11.25;2.35;;;9.20;99.90;;;;;;5073218;28;20048;-42
2021/12/15 13:44:14;;;;;;;7.00;1.88;;;9.20;99.90;;;;;;5081933;28;20133;-45
2021/12/15 13:47:01;;;;;;;6.28;1.80;;;9.30;99.90;;;;;;5069354;28;20386;-43
2021/12/15 13:49:48;;;;;;;8.65;1.80;;;9.20;99.90;;;;;;5067320;28;20504;-47
2021/12/15 13:52:34;;;;;;;11.70;2.40;;;9.20;99.90;;;;;;5074822;28;20512;-44
2021/12/15 13:55:11;;;;;;;11.40;2.03;;;9.80;99.90;;;;;;5073036;28;20036;-43
2021/12/15 13:58:12;;;;;;;8.52;2.03;;;9.20;99.90;;;;;;5067716;28;20471;-43
2021/12/15 14:00:50;;;;;;;5.78;1.45;;;9.10;99.90;;;;;;5067334;28;20040;-48
2021/12/15 14:03:19;;;;;;;7.50;1.85;;;9.20;99.90;;;;;;5074197;28;20830;-47
2021/12/15 14:06:12;;;;;;;9.60;2.50;;;9.20;99.90;;;;;;5078890;28;20069;-45
2021/12/15 14:08:40;;;;;;;;;;;9.40;99.90;;;;;;5078729;28;20373;-43
2021/12/15 14:11:17;;;;;;;13.45;2.67;;;9.40;99.90;;;;;;5082955;28;19990;-43
2021/12/15 14:13:53;;;;;;;5.68;1.73;;;9.30;99.90;;;;;;5073054;28;20093;-44
2021/12/15 14:16:55;;;;;;;6.65;1.73;;;9.20;99.90;;;;;;5073182;28;20040;-46
2021/12/15 14:19:23;;;;;;;9.00;1.58;;;9.40;99.90;;;;;;5001091;28;20125;-46
2021/12/15 14:21:50;;;;;;;6.43;1.40;;;9.30;99.90;;;;;;4999400;28;20584;-44
2021/12/15 14:24:19;;;;;;;11.70;2.38;;;9.40;99.90;;;;;;5000257;28;20128;-45
2021/12/15 14:26:46;;;;;;;9.70;1.90;;;9.70;99.90;;;;;;4999819;28;20053;-44
2021/12/15 14:29:20;;;;;;;6.57;1.75;;;9.20;99.90;;;;;;5000170;28;20042;-43